Terminal Aerodrome Forecast
Issued by NWS

Home | Current Version | Previous Version | Text Only | Print | Product List | Glossary Off
Versions: 1 2 3 4 5 6 7 8 9 10 11 12 13 14 15 16 17 18 19

000
FTUS43 KMPX 270524
TAFAXN
TAF
KAXN 270524Z 2706/2806 14006KT P6SM BKN050 BKN250
     FM271000 15007KT P6SM SCT050 BKN150
     FM271800 16010KT P6SM BKN040 BKN100
     FM280200 14007KT P6SM VCSH SCT030 OVC090=

USA.gov is the U.S. government's official web portal to all federal, state and local government web resources and services.